Somerset, Ohio
Current Conditions -  °F | °C
As of 5:54 PM on Wednesday 22 Oct 2014 (Local Time) from KVTA Reporting Station
Overcast Overcast  
Wind Chill: 50°   Ceiling: 2800
Heat Index: 50°   Visibility: 10mi
Dew Point: 39°   Wind: 6mph
Humidity: 66%   Direction: 20°NNE
Pressure: 30.24"   Gusts: NA
Location:  39.81°N, 82.3°W
Report Text: KVTA 222154Z AUTO 02005KT 10SM OVC028 10/04 A3024 RMK AO2 SLP242 T01000039
Loading
Personal Weather Stations






























Interactive Weather Map
Tropical Storm Tracking
New forecast layout! Learn more

10-Day Weather Forecast

Advertisements
Track Severe Weather on mobile